Time;durP1;ratioP1;P1;durP2;ratioP2;P2;SDS_P1;SDS_P2;PMS_P1;PMS_P2;Temp;Humidity;BMP_temperature;BMP_pressure;BME280_temperature;BME280_humidity;BME280_pressure;Samples;Min_cycle;Max_cycle;Signal;HPM_P1;HPM_P2
2021/11/11 00:01:02;;;;;;;17.53;8.83;;;8.10;99.90;;;;;;5047584;28;20297;-77
2021/11/11 00:03:30;;;;;;;17.33;8.83;;;8.10;99.90;;;;;;5047734;28;20201;-77
2021/11/11 00:05:57;;;;;;;15.77;8.10;;;8.10;99.90;;;;;;5046897;28;20284;-76
2021/11/11 00:08:25;;;;;;;18.03;8.37;;;8.20;99.90;;;;;;5048872;28;20198;-77
2021/11/11 00:10:52;;;;;;;14.17;7.73;;;8.20;99.90;;;;;;5046931;28;20588;-77
2021/11/11 00:13:20;;;;;;;16.20;7.77;;;8.30;99.90;;;;;;5047893;28;20198;-76
2021/11/11 00:15:50;;;;;;;15.00;7.53;;;8.30;99.90;;;;;;5046545;28;20209;-76
2021/11/11 00:18:17;;;;;;;13.10;7.40;;;8.30;99.90;;;;;;5048733;28;20217;-77
2021/11/11 00:20:45;;;;;;;14.90;6.77;;;8.30;99.90;;;;;;5046278;28;20305;-77
2021/11/11 00:23:12;;;;;;;12.17;6.07;;;8.40;99.90;;;;;;5063420;28;20208;-76
2021/11/11 00:25:39;;;;;;;12.70;6.70;;;8.40;99.90;;;;;;5046510;28;20238;-76
2021/11/11 00:28:06;;;;;;;10.57;5.97;;;8.50;99.90;;;;;;5036406;28;20193;-77
2021/11/11 00:30:34;;;;;;;12.07;6.17;;;8.40;99.90;;;;;;5043840;28;20216;-76
2021/11/11 00:33:03;;;;;;;10.20;5.37;;;8.50;99.90;;;;;;5063102;28;20665;-76
2021/11/11 00:35:31;;;;;;;9.33;5.13;;;8.60;99.90;;;;;;5046897;28;20204;-76
2021/11/11 00:38:00;;;;;;;8.57;5.10;;;8.60;99.90;;;;;;5051856;28;20247;-76
2021/11/11 00:40:29;;;;;;;9.10;5.03;;;8.60;99.90;;;;;;5050520;28;20198;-76
2021/11/11 00:42:57;;;;;;;7.43;4.43;;;8.70;99.90;;;;;;5051146;28;20210;-77
2021/11/11 00:45:24;;;;;;;8.80;4.70;;;8.70;99.90;;;;;;5049938;28;20204;-76
2021/11/11 00:47:51;;;;;;;6.67;4.23;;;8.70;99.90;;;;;;5050940;28;20725;-77
2021/11/11 00:50:22;;;;;;;6.77;4.40;;;8.80;99.90;;;;;;5050105;28;20233;-76
2021/11/11 00:52:49;;;;;;;8.53;5.50;;;8.80;99.90;;;;;;5050941;28;20205;-77
2021/11/11 00:55:17;;;;;;;8.73;5.70;;;8.80;99.90;;;;;;5048022;28;20582;-77
2021/11/11 00:57:56;;;;;;;9.00;5.80;;;8.90;99.90;;;;;;5062909;28;20570;-76
2021/11/11 01:00:24;;;;;;;8.37;5.03;;;8.90;99.90;;;;;;5050296;28;20210;-77
2021/11/11 01:02:52;;;;;;;7.47;4.97;;;8.90;99.90;;;;;;5050638;28;20247;-77
2021/11/11 01:05:20;;;;;;;6.63;4.73;;;9.00;99.90;;;;;;5065765;28;20208;-77
2021/11/11 01:07:48;;;;;;;6.87;4.27;;;9.00;99.90;;;;;;5050253;28;20284;-77
2021/11/11 01:10:18;;;;;;;5.47;4.00;;;9.00;99.90;;;;;;5050617;28;20207;-77
2021/11/11 01:12:47;;;;;;;4.83;3.80;;;9.00;99.90;;;;;;5050573;28;20256;-77
2021/11/11 01:15:17;;;;;;;4.97;3.87;;;9.10;99.90;;;;;;5049037;28;20317;-77
2021/11/11 01:17:45;;;;;;;4.17;3.50;;;9.10;99.90;;;;;;5049576;28;20225;-77
2021/11/11 01:20:13;;;;;;;4.57;3.53;;;9.10;99.90;;;;;;5047256;28;20565;-77
2021/11/11 01:22:44;;;;;;;5.50;3.87;;;9.10;99.90;;;;;;5052128;28;20223;-77
2021/11/11 01:25:14;;;;;;;5.60;4.23;;;9.20;99.90;;;;;;5050079;28;20190;-77
2021/11/11 01:27:42;;;;;;;5.07;4.20;;;9.10;99.90;;;;;;5049833;28;20208;-77
2021/11/11 01:30:17;;;;;;;3.60;3.13;;;9.20;99.90;;;;;;5050885;28;20203;-77
2021/11/11 01:32:48;;;;;;;4.43;3.57;;;9.30;99.90;;;;;;5038952;28;20550;-77
2021/11/11 01:35:17;;;;;;;4.53;3.53;;;9.20;99.90;;;;;;5064001;28;20210;-77
2021/11/11 01:37:45;;;;;;;4.97;3.50;;;9.30;99.90;;;;;;5038939;28;20226;-77
2021/11/11 01:40:15;;;;;;;3.90;3.40;;;9.30;99.90;;;;;;5055784;28;20226;-78
2021/11/11 01:42:48;;;;;;;3.87;3.20;;;9.30;99.90;;;;;;5051633;28;20297;-77
2021/11/11 01:45:16;;;;;;;5.00;3.77;;;9.30;99.90;;;;;;5064930;28;20595;-77
2021/11/11 01:47:44;;;;;;;4.33;3.60;;;9.40;99.90;;;;;;5050079;28;20206;-77
2021/11/11 01:50:12;;;;;;;4.17;3.10;;;9.40;99.90;;;;;;5049185;28;20206;-77
2021/11/11 01:52:42;;;;;;;5.40;3.67;;;9.40;99.90;;;;;;5049821;28;20203;-77
2021/11/11 01:55:12;;;;;;;4.60;3.67;;;9.40;99.90;;;;;;5049056;28;20251;-76
2021/11/11 01:57:42;;;;;;;4.33;3.40;;;9.40;99.90;;;;;;5047395;28;20213;-77
2021/11/11 02:00:19;;;;;;;7.37;4.33;;;9.40;99.90;;;;;;5048935;28;20697;-77
2021/11/11 02:02:54;;;;;;;5.67;4.30;;;9.30;99.90;;;;;;5049378;28;20211;-77
2021/11/11 02:05:42;;;;;;;4.93;3.60;;;9.30;99.90;;;;;;5050471;28;20206;-76
2021/11/11 02:08:10;;;;;;;5.77;3.90;;;9.30;99.90;;;;;;5050007;28;20208;-77
2021/11/11 02:10:40;;;;;;;5.77;4.00;;;9.30;99.90;;;;;;5064277;28;20240;-76
2021/11/11 02:13:10;;;;;;;5.70;3.60;;;9.30;99.90;;;;;;5049023;28;20254;-77
2021/11/11 02:15:39;;;;;;;7.70;4.90;;;9.30;99.90;;;;;;5063803;28;20215;-76
2021/11/11 02:18:08;;;;;;;6.17;4.07;;;9.20;99.90;;;;;;5049287;28;20340;-77
2021/11/11 02:20:42;;;;;;;5.67;4.20;;;9.30;99.90;;;;;;5048319;28;20666;-76
2021/11/11 02:23:15;;;;;;;6.90;4.10;;;9.20;99.90;;;;;;5064836;28;20205;-76
2021/11/11 02:26:09;;;;;;;5.50;3.73;;;9.30;99.90;;;;;;5037680;28;20673;-76
2021/11/11 02:28:54;;;;;;;5.90;4.10;;;9.30;99.90;;;;;;5047630;28;20202;-77
2021/11/11 02:31:25;;;;;;;4.97;3.73;;;9.30;99.90;;;;;;5049687;28;20199;-76
2021/11/11 02:33:56;;;;;;;6.97;4.80;;;9.30;99.90;;;;;;5048041;28;20208;-76
2021/11/11 02:36:59;;;;;;;6.47;4.27;;;9.30;99.90;;;;;;5048160;28;20228;-76
2021/11/11 02:39:37;;;;;;;5.53;4.10;;;9.30;99.90;;;;;;5039949;28;20257;-76
2021/11/11 02:42:05;;;;;;;6.50;4.13;;;9.30;99.90;;;;;;5047801;28;20290;-76
2021/11/11 02:44:33;;;;;;;6.83;4.50;;;9.30;99.90;;;;;;5048280;28;20256;-76
2021/11/11 02:47:01;;;;;;;4.93;3.80;;;9.30;99.90;;;;;;5060851;28;20512;-76
2021/11/11 02:49:37;;;;;;;7.27;4.27;;;9.30;99.90;;;;;;5046266;28;20214;-77
2021/11/11 02:52:07;;;;;;;6.77;4.77;;;9.30;99.90;;;;;;5060083;28;20202;-76
2021/11/11 02:54:37;;;;;;;8.20;5.40;;;9.30;99.90;;;;;;5058107;28;20560;-76
2021/11/11 02:57:18;;;;;;;9.27;6.10;;;9.20;99.90;;;;;;5046326;28;20195;-76
2021/11/11 02:59:45;;;;;;;8.57;5.50;;;9.20;99.90;;;;;;5048986;28;20575;-76
2021/11/11 03:02:20;;;;;;;8.37;5.47;;;9.20;99.90;;;;;;5048101;28;20258;-76
2021/11/11 03:04:48;;;;;;;7.77;4.93;;;9.10;99.90;;;;;;5047501;28;20273;-76
2021/11/11 03:07:17;;;;;;;8.07;5.70;;;9.10;99.90;;;;;;5047833;28;20257;-76
2021/11/11 03:09:45;;;;;;;8.83;6.00;;;9.10;99.90;;;;;;5047708;28;20634;-76
2021/11/11 03:12:13;;;;;;;12.17;7.60;;;9.10;99.90;;;;;;5047542;28;20210;-76
2021/11/11 03:14:44;;;;;;;10.50;6.53;;;9.00;99.90;;;;;;5063671;28;20223;-76
2021/11/11 03:17:12;;;;;;;8.73;5.70;;;8.90;99.90;;;;;;5047777;28;20203;-76
2021/11/11 03:19:40;;;;;;;11.17;6.50;;;9.00;99.90;;;;;;5064023;28;20256;-76
2021/11/11 03:22:09;;;;;;;10.43;5.90;;;9.00;99.90;;;;;;5050396;28;20558;-76
2021/11/11 03:24:41;;;;;;;10.37;5.73;;;8.90;99.90;;;;;;5048696;28;20288;-76
2021/11/11 03:27:10;;;;;;;7.83;5.20;;;8.90;99.90;;;;;;5046266;28;20295;-76
2021/11/11 03:29:40;;;;;;;6.70;4.63;;;9.00;99.90;;;;;;5063613;28;20201;-76
2021/11/11 03:32:08;;;;;;;8.43;5.27;;;9.00;99.90;;;;;;5048615;28;20251;-76
2021/11/11 03:34:38;;;;;;;8.47;5.40;;;9.00;99.90;;;;;;5047538;28;20230;-76
2021/11/11 03:37:11;;;;;;;13.17;6.90;;;8.90;99.90;;;;;;5046698;28;20224;-76
2021/11/11 03:39:40;;;;;;;9.23;6.03;;;8.90;99.90;;;;;;5047930;28;20214;-76
2021/11/11 03:42:09;;;;;;;12.43;7.17;;;8.90;99.90;;;;;;5063196;28;20244;-76
2021/11/11 03:44:36;;;;;;;10.47;6.73;;;8.90;99.90;;;;;;5047165;28;20217;-73
2021/11/11 03:47:04;;;;;;;9.87;6.67;;;8.90;99.90;;;;;;5048175;28;20221;-73
2021/11/11 03:49:34;;;;;;;10.43;6.60;;;8.90;99.90;;;;;;5046781;28;20703;-73
2021/11/11 03:52:02;;;;;;;9.43;6.43;;;8.80;99.90;;;;;;5047863;28;20313;-73
2021/11/11 03:54:29;;;;;;;12.63;7.80;;;8.80;99.90;;;;;;5062021;28;20233;-73
2021/11/11 03:57:00;;;;;;;10.23;6.40;;;8.80;99.90;;;;;;5045547;28;20194;-73
2021/11/11 03:59:30;;;;;;;8.87;6.10;;;8.80;99.90;;;;;;5046225;28;20253;-73
2021/11/11 04:01:58;;;;;;;9.70;6.43;;;8.80;99.90;;;;;;5046613;28;20209;-73
2021/11/11 04:04:25;;;;;;;8.53;5.53;;;8.70;99.90;;;;;;5046597;28;20205;-73
2021/11/11 04:06:52;;;;;;;9.33;5.30;;;8.70;99.90;;;;;;5047036;28;20288;-73
2021/11/11 04:09:20;;;;;;;7.90;4.87;;;8.70;99.90;;;;;;5045543;28;20539;-73
2021/11/11 04:11:48;;;;;;;8.10;5.03;;;8.70;99.90;;;;;;5046872;28;20207;-73
2021/11/11 04:14:18;;;;;;;7.37;4.60;;;8.80;99.90;;;;;;5046736;28;20205;-73
2021/11/11 04:16:47;;;;;;;8.70;5.00;;;8.80;99.90;;;;;;5046493;28;20235;-72
2021/11/11 04:19:15;;;;;;;9.73;5.30;;;8.80;99.90;;;;;;5042231;28;20266;-72
2021/11/11 04:21:43;;;;;;;10.67;5.70;;;8.80;99.90;;;;;;5047034;28;20291;-73
2021/11/11 04:24:12;;;;;;;7.80;4.97;;;8.80;99.90;;;;;;5047702;28;20755;-73
2021/11/11 04:26:49;;;;;;;8.47;4.57;;;8.80;99.90;;;;;;5061548;28;20650;-72
2021/11/11 04:29:21;;;;;;;7.67;4.73;;;8.80;99.90;;;;;;5045209;28;20200;-73
2021/11/11 04:31:52;;;;;;;7.67;4.60;;;8.80;99.90;;;;;;5036078;28;20201;-72
2021/11/11 04:34:20;;;;;;;11.50;5.30;;;8.80;99.90;;;;;;5046496;28;20193;-72
2021/11/11 04:37:08;;;;;;;9.77;5.20;;;8.80;99.90;;;;;;5036915;28;20202;-72
2021/11/11 04:39:56;;;;;;;11.97;6.07;;;8.80;99.90;;;;;;5058818;28;20300;-72
2021/11/11 04:42:43;;;;;;;11.73;6.27;;;8.80;99.90;;;;;;5046277;28;20314;-72
2021/11/11 04:48:17;;;;;;;10.90;6.30;;;8.70;99.90;;;;;;5046050;28;20209;-73
2021/11/11 04:51:06;;;;;;;9.43;5.87;;;8.70;99.90;;;;;;5044088;28;20202;-73
2021/11/11 05:01:52;;;;;;;14.80;8.50;;;8.60;99.90;;;;;;5044268;28;20593;-73
2021/11/11 05:04:19;;;;;;;16.43;9.67;;;8.60;99.90;;;;;;5045852;28;20195;-73
2021/11/11 05:06:46;;;;;;;15.57;8.70;;;8.50;99.90;;;;;;5045690;28;20203;-74
2021/11/11 05:09:13;;;;;;;14.43;7.80;;;8.50;99.90;;;;;;5044126;28;20205;-73
2021/11/11 05:11:41;;;;;;;15.07;8.40;;;8.50;99.90;;;;;;5057563;28;20208;-73
2021/11/11 05:14:08;;;;;;;15.03;9.03;;;8.50;99.90;;;;;;5046594;28;20639;-73
2021/11/11 05:16:35;;;;;;;14.83;8.63;;;8.40;99.90;;;;;;5045685;28;20194;-73
2021/11/11 05:19:04;;;;;;;14.20;8.17;;;8.40;99.90;;;;;;5045926;28;20225;-73
2021/11/11 05:21:32;;;;;;;11.57;6.77;;;8.40;99.90;;;;;;5049227;28;20252;-73
2021/11/11 05:23:59;;;;;;;11.23;6.73;;;8.50;99.90;;;;;;5050695;28;20198;-73
2021/11/11 05:26:29;;;;;;;13.70;8.30;;;8.50;99.90;;;;;;5049511;28;20755;-73
2021/11/11 05:28:59;;;;;;;12.90;7.23;;;8.50;99.90;;;;;;5048554;28;20240;-73
2021/11/11 05:31:27;;;;;;;14.73;7.53;;;8.50;99.90;;;;;;5049576;28;20670;-73
2021/11/11 05:33:54;;;;;;;15.30;8.30;;;8.50;99.90;;;;;;5049595;28;20218;-73
2021/11/11 05:36:24;;;;;;;11.60;7.30;;;8.50;99.90;;;;;;5066623;28;20746;-73
2021/11/11 05:38:52;;;;;;;9.97;6.53;;;8.50;99.90;;;;;;5049751;28;20230;-74
2021/11/11 05:41:19;;;;;;;12.20;7.03;;;8.50;99.90;;;;;;5049665;28;20203;-74
2021/11/11 05:43:50;;;;;;;10.90;6.70;;;8.50;99.90;;;;;;5049026;28;20551;-73
2021/11/11 05:46:18;;;;;;;13.77;7.00;;;8.50;99.90;;;;;;5051022;28;20194;-73
2021/11/11 05:48:48;;;;;;;9.90;5.87;;;8.50;99.90;;;;;;5048707;28;20275;-74
2021/11/11 05:51:15;;;;;;;10.37;6.13;;;8.50;99.90;;;;;;5049652;28;20222;-74
2021/11/11 05:53:43;;;;;;;9.57;6.03;;;8.50;99.90;;;;;;5051256;28;20685;-73
2021/11/11 05:56:10;;;;;;;8.93;5.80;;;8.50;99.90;;;;;;5049825;28;20288;-73
2021/11/11 05:58:38;;;;;;;8.17;5.93;;;8.50;99.90;;;;;;5047827;28;20582;-74
2021/11/11 06:01:05;;;;;;;7.70;5.00;;;8.50;99.90;;;;;;5050171;28;20686;-73
2021/11/11 06:03:43;;;;;;;7.70;5.97;;;8.60;99.90;;;;;;5049406;28;20198;-73
2021/11/11 06:06:10;;;;;;;10.77;6.40;;;8.60;99.90;;;;;;5066528;28;20727;-74
2021/11/11 06:08:43;;;;;;;11.20;6.40;;;8.60;99.90;;;;;;5047492;28;20667;-73
2021/11/11 06:11:12;;;;;;;8.93;5.77;;;8.60;99.90;;;;;;5049118;28;20197;-73
2021/11/11 06:13:39;;;;;;;8.20;4.93;;;8.50;99.90;;;;;;5034468;28;20618;-73
2021/11/11 06:16:06;;;;;;;6.27;4.80;;;8.60;99.90;;;;;;5049594;28;20209;-73
2021/11/11 06:18:33;;;;;;;7.40;4.93;;;8.60;99.90;;;;;;5063864;28;20229;-73
2021/11/11 06:21:01;;;;;;;6.87;4.70;;;8.70;99.90;;;;;;5050921;28;20190;-73
2021/11/11 06:23:36;;;;;;;8.13;5.33;;;8.60;99.90;;;;;;5045283;28;20205;-73
2021/11/11 06:26:05;;;;;;;7.30;5.10;;;8.70;99.90;;;;;;5065526;28;20290;-73
2021/11/11 06:28:37;;;;;;;8.07;5.30;;;8.70;99.90;;;;;;5046295;28;20205;-73
2021/11/11 06:31:05;;;;;;;10.20;6.10;;;8.70;99.90;;;;;;5049372;28;20552;-73
2021/11/11 06:33:33;;;;;;;8.43;5.53;;;8.70;99.90;;;;;;5047349;28;20601;-73
2021/11/11 06:36:01;;;;;;;8.70;5.73;;;8.70;99.90;;;;;;5049302;28;20673;-73
2021/11/11 06:38:28;;;;;;;8.33;5.60;;;8.70;99.90;;;;;;5049632;28;20287;-73
2021/11/11 06:40:55;;;;;;;7.77;5.30;;;8.70;99.90;;;;;;5048378;28;20713;-73
2021/11/11 06:43:23;;;;;;;9.97;5.97;;;8.70;99.90;;;;;;5050071;28;20206;-73
2021/11/11 06:45:50;;;;;;;6.80;4.83;;;8.80;99.90;;;;;;5048746;28;20221;-73
2021/11/11 06:48:18;;;;;;;8.87;5.30;;;8.80;99.90;;;;;;5048644;28;20298;-73
2021/11/11 06:50:46;;;;;;;7.53;5.00;;;8.90;99.90;;;;;;5047129;28;20196;-73
2021/11/11 06:53:16;;;;;;;7.97;4.90;;;8.90;99.90;;;;;;5048892;28;20202;-73
2021/11/11 06:55:44;;;;;;;7.70;4.87;;;8.90;99.90;;;;;;5048240;28;20715;-73
2021/11/11 06:58:12;;;;;;;8.00;5.57;;;8.90;99.90;;;;;;5048403;28;20711;-73
2021/11/11 07:00:42;;;;;;;8.77;5.37;;;8.90;99.90;;;;;;5046525;28;20206;-73
2021/11/11 07:03:12;;;;;;;8.23;4.70;;;9.00;99.90;;;;;;5048627;28;20568;-73
2021/11/11 07:05:39;;;;;;;6.47;4.53;;;9.00;99.90;;;;;;5062268;28;20201;-73
2021/11/11 07:08:10;;;;;;;6.77;4.50;;;9.10;99.90;;;;;;5057864;28;20206;-72
2021/11/11 07:10:37;;;;;;;6.97;4.83;;;9.10;99.90;;;;;;5049551;28;20649;-72
2021/11/11 07:13:04;;;;;;;5.53;3.87;;;9.10;99.90;;;;;;5049672;28;20208;-73
2021/11/11 07:15:32;;;;;;;5.30;4.33;;;9.20;99.90;;;;;;5047851;28;20388;-73
2021/11/11 07:18:01;;;;;;;5.80;4.27;;;9.20;99.90;;;;;;5047527;28;20205;-74
2021/11/11 07:20:28;;;;;;;6.23;4.53;;;9.20;99.90;;;;;;5047966;28;20668;-74
2021/11/11 07:22:59;;;;;;;6.53;4.50;;;9.30;99.90;;;;;;5039949;28;20211;-73
2021/11/11 07:25:27;;;;;;;5.97;4.83;;;9.30;99.90;;;;;;5049232;28;20225;-73
2021/11/11 07:27:54;;;;;;;6.13;4.63;;;9.30;99.90;;;;;;5046793;28;20201;-73
2021/11/11 07:30:22;;;;;;;4.83;4.33;;;9.30;99.90;;;;;;5047727;28;20190;-73
2021/11/11 07:32:49;;;;;;;4.23;3.73;;;9.30;99.90;;;;;;5047951;28;20217;-72
2021/11/11 07:35:19;;;;;;;4.87;4.20;;;9.40;99.90;;;;;;5047022;28;20688;-72
2021/11/11 07:37:49;;;;;;;6.33;4.90;;;9.40;99.90;;;;;;5051816;28;20688;-73
2021/11/11 07:40:18;;;;;;;6.90;5.00;;;9.50;99.90;;;;;;5046931;28;20222;-72
2021/11/11 07:42:45;;;;;;;5.43;4.23;;;9.60;99.90;;;;;;5047566;28;20198;-73
2021/11/11 07:45:15;;;;;;;6.63;5.07;;;9.70;99.90;;;;;;5048685;28;20201;-74
2021/11/11 07:47:42;;;;;;;6.43;5.00;;;9.80;99.90;;;;;;5047801;28;20453;-73
2021/11/11 07:50:10;;;;;;;9.83;5.23;;;9.90;99.90;;;;;;5044888;28;20198;-73
2021/11/11 07:52:39;;;;;;;6.60;5.10;;;10.00;99.90;;;;;;5047772;28;20631;-72
2021/11/11 07:55:07;;;;;;;15.10;8.17;;;10.00;99.90;;;;;;5062309;28;20227;-73
2021/11/11 07:57:35;;;;;;;11.90;7.47;;;10.10;99.90;;;;;;5046097;28;20654;-73
2021/11/11 08:00:05;;;;;;;14.10;8.93;;;10.20;99.90;;;;;;5047117;28;20725;-73
2021/11/11 08:02:40;;;;;;;12.40;8.13;;;10.20;99.90;;;;;;5049269;28;20203;-73
2021/11/11 08:05:08;;;;;;;13.17;7.47;;;10.20;99.90;;;;;;5047048;28;20210;-73
2021/11/11 08:07:35;;;;;;;10.80;7.20;;;10.20;99.90;;;;;;5046957;28;20232;-73
2021/11/11 08:10:04;;;;;;;13.03;7.17;;;10.30;99.90;;;;;;5048261;28;20218;-73
2021/11/11 08:12:32;;;;;;;10.23;6.60;;;10.40;99.90;;;;;;5046060;28;20299;-73
2021/11/11 08:14:59;;;;;;;10.57;6.27;;;10.40;99.90;;;;;;5047985;28;20196;-73
2021/11/11 08:17:26;;;;;;;11.67;6.93;;;10.40;99.90;;;;;;5044164;28;20290;-73
2021/11/11 08:19:55;;;;;;;17.57;9.27;;;10.40;99.90;;;;;;5045717;28;20220;-73
2021/11/11 08:22:22;;;;;;;12.93;7.20;;;10.40;99.90;;;;;;5062226;28;20203;-73
2021/11/11 08:24:49;;;;;;;13.57;7.90;;;10.40;99.90;;;;;;5047170;28;20200;-72
2021/11/11 08:27:20;;;;;;;9.57;6.70;;;10.40;99.90;;;;;;5047562;28;20684;-73
2021/11/11 08:29:48;;;;;;;9.87;5.80;;;10.40;99.90;;;;;;5045127;28;20208;-72
2021/11/11 08:32:19;;;;;;;9.13;5.67;;;10.50;99.90;;;;;;5044616;28;20199;-73
2021/11/11 08:34:48;;;;;;;8.17;5.20;;;10.50;99.90;;;;;;5047940;28;20631;-73
2021/11/11 08:37:15;;;;;;;9.33;5.63;;;10.60;99.90;;;;;;5048062;28;20588;-73
2021/11/11 08:39:42;;;;;;;15.20;7.33;;;10.70;99.90;;;;;;5046423;28;20235;-74
2021/11/11 08:42:11;;;;;;;16.80;9.40;;;10.80;99.90;;;;;;5046289;28;20197;-72
2021/11/11 08:44:42;;;;;;;15.47;8.77;;;10.90;99.90;;;;;;5039085;28;20213;-73
2021/11/11 08:47:10;;;;;;;14.10;8.30;;;11.00;99.90;;;;;;5035775;28;20194;-73
2021/11/11 08:49:38;;;;;;;11.93;7.43;;;11.20;99.90;;;;;;5039252;28;20274;-73
2021/11/11 08:52:06;;;;;;;10.83;6.43;;;11.40;99.90;;;;;;5055294;28;20290;-73
2021/11/11 08:54:33;;;;;;;13.40;6.37;;;11.50;99.90;;;;;;5046271;28;20776;-73
2021/11/11 08:57:00;;;;;;;8.93;5.57;;;11.70;99.90;;;;;;5048454;28;20276;-73
2021/11/11 08:59:27;;;;;;;12.90;6.83;;;11.70;99.90;;;;;;5047226;28;20225;-73
2021/11/11 09:01:56;;;;;;;14.33;7.93;;;11.70;99.90;;;;;;5046826;28;20265;-73
2021/11/11 09:04:23;;;;;;;15.10;7.30;;;11.70;99.90;;;;;;5046572;28;20299;-73
2021/11/11 09:06:51;;;;;;;10.70;6.50;;;11.70;99.90;;;;;;5049986;28;20715;-73
2021/11/11 09:09:19;;;;;;;11.43;7.03;;;11.70;99.90;;;;;;5052806;28;20257;-73
2021/11/11 09:11:47;;;;;;;11.30;6.70;;;11.70;99.90;;;;;;5049547;28;20206;-73
2021/11/11 09:14:17;;;;;;;8.93;5.93;;;11.70;99.90;;;;;;5052200;28;20236;-73
2021/11/11 09:16:45;;;;;;;8.87;5.50;;;11.70;99.90;;;;;;5053950;28;20686;-73
2021/11/11 09:19:14;;;;;;;9.50;5.67;;;11.70;99.90;;;;;;5048219;28;20201;-73
2021/11/11 09:21:42;;;;;;;7.03;4.90;;;11.80;99.90;;;;;;5047442;28;20301;-73
2021/11/11 09:24:10;;;;;;;8.30;4.43;;;11.80;99.90;;;;;;5048272;28;20322;-73
2021/11/11 09:26:38;;;;;;;6.90;4.90;;;11.90;99.90;;;;;;5050028;28;20229;-73
2021/11/11 09:29:06;;;;;;;6.07;4.30;;;11.90;99.90;;;;;;5048722;28;20684;-73
2021/11/11 09:31:35;;;;;;;5.90;4.50;;;12.00;99.90;;;;;;5048084;28;20641;-72
2021/11/11 09:34:02;;;;;;;12.70;8.10;;;12.10;99.90;;;;;;5041932;28;20227;-73
2021/11/11 09:36:34;;;;;;;10.43;6.23;;;12.10;99.90;;;;;;5050479;28;20658;-73
2021/11/11 09:39:05;;;;;;;8.77;6.00;;;12.20;99.90;;;;;;5050459;28;20232;-73
2021/11/11 09:41:33;;;;;;;8.30;5.50;;;12.30;99.90;;;;;;5048968;28;20280;-72
2021/11/11 09:44:00;;;;;;;7.63;4.80;;;12.30;99.90;;;;;;5048946;28;20287;-72
2021/11/11 09:46:27;;;;;;;8.77;6.13;;;12.40;99.90;;;;;;5051419;28;20296;-73
2021/11/11 09:48:54;;;;;;;10.50;6.23;;;12.40;99.90;;;;;;5037275;28;20408;-73
2021/11/11 09:51:24;;;;;;;8.83;5.80;;;12.40;99.90;;;;;;5057772;28;20207;-73
2021/11/11 09:59:29;;;;;;;9.17;6.07;;;12.60;99.90;;;;;;4990738;28;20214;-73
2021/11/11 10:01:58;;;;;;;9.27;5.60;;;12.60;99.90;;;;;;4985668;28;20199;-74
2021/11/11 10:04:26;;;;;;;7.53;5.53;;;12.60;99.90;;;;;;4991837;28;20547;-73
2021/11/11 10:06:53;;;;;;;7.03;4.50;;;12.70;99.90;;;;;;5007109;28;20654;-74
2021/11/11 10:09:24;;;;;;;4.67;3.90;;;12.70;99.90;;;;;;5008639;28;20203;-74
2021/11/11 10:11:54;;;;;;;3.93;3.50;;;12.80;99.90;;;;;;4977978;28;20200;-74
2021/11/11 10:14:23;;;;;;;4.77;3.73;;;12.90;99.90;;;;;;5007111;28;20293;-74
2021/11/11 10:16:53;;;;;;;3.93;3.23;;;13.00;99.90;;;;;;4990235;28;20807;-74
2021/11/11 10:19:20;;;;;;;4.07;3.03;;;13.10;99.90;;;;;;4989444;28;20200;-73
2021/11/11 10:21:51;;;;;;;2.60;2.40;;;13.20;99.90;;;;;;4988311;28;20227;-74
2021/11/11 10:24:23;;;;;;;3.50;3.20;;;13.20;99.90;;;;;;4992067;28;20203;-73
2021/11/11 10:26:54;;;;;;;5.17;3.47;;;13.30;99.90;;;;;;4985367;28;20219;-73
2021/11/11 10:29:31;;;;;;;3.03;2.60;;;13.20;99.90;;;;;;4982229;28;20207;-73
2021/11/11 10:32:06;;;;;;;5.73;3.90;;;13.20;99.90;;;;;;5002777;28;20672;-73
2021/11/11 10:34:34;;;;;;;4.20;3.37;;;13.20;99.90;;;;;;5039066;28;20243;-73
2021/11/11 10:37:01;;;;;;;4.37;3.47;;;13.20;99.90;;;;;;5045177;28;20618;-74
2021/11/11 10:39:33;;;;;;;3.30;3.00;;;13.20;99.90;;;;;;5045072;28;20722;-74
2021/11/11 10:42:14;;;;;;;3.00;2.70;;;13.20;99.90;;;;;;5046579;28;20222;-73
2021/11/11 10:44:41;;;;;;;4.80;3.57;;;13.20;99.90;;;;;;5049490;28;20677;-74
2021/11/11 10:47:11;;;;;;;5.23;2.77;;;13.20;99.90;;;;;;5048101;28;20292;-74
2021/11/11 10:49:41;;;;;;;4.27;3.37;;;13.30;99.90;;;;;;5046171;28;20202;-74
2021/11/11 10:52:37;;;;;;;4.40;2.90;;;13.30;99.90;;;;;;5046190;28;20663;-74
2021/11/11 10:55:17;;;;;;;3.43;2.60;;;13.40;99.90;;;;;;4990255;28;20239;-75
2021/11/11 10:57:51;;;;;;;2.30;2.10;;;13.50;99.90;;;;;;5007468;28;20304;-75
2021/11/11 11:00:36;;;;;;;3.90;2.43;;;13.50;99.90;;;;;;4990062;28;20220;-75
2021/11/11 11:03:06;;;;;;;5.53;3.77;;;13.50;99.90;;;;;;4996261;28;20665;-75
2021/11/11 11:05:38;;;;;;;6.60;3.93;;;13.50;99.90;;;;;;4985563;28;20207;-74
2021/11/11 11:08:09;;;;;;;3.73;3.00;;;13.40;99.90;;;;;;4991820;28;20556;-75
2021/11/11 11:10:41;;;;;;;2.87;2.60;;;13.40;99.90;;;;;;4990207;28;20282;-74
2021/11/11 11:13:12;;;;;;;3.13;2.70;;;13.40;99.90;;;;;;4987654;28;20204;-74
2021/11/11 11:15:46;;;;;;;3.17;2.80;;;13.40;99.90;;;;;;5003055;28;20207;-74
2021/11/11 11:18:15;;;;;;;3.83;3.03;;;13.50;99.90;;;;;;4989996;28;20198;-74
2021/11/11 11:20:43;;;;;;;3.10;2.80;;;13.50;99.90;;;;;;5003573;28;20234;-74
2021/11/11 11:23:22;;;;;;;3.43;3.13;;;13.50;99.90;;;;;;5007484;28;20751;-74
2021/11/11 11:25:53;;;;;;;4.87;4.10;;;13.50;99.90;;;;;;4990155;28;20207;-74
2021/11/11 11:28:41;;;;;;;5.00;4.00;;;13.50;99.90;;;;;;5006952;28;20203;-74
2021/11/11 11:31:10;;;;;;;3.77;3.37;;;13.50;99.90;;;;;;5027258;28;20204;-74
2021/11/11 11:33:45;;;;;;;4.07;3.40;;;13.50;99.90;;;;;;5045313;28;20230;-73
2021/11/11 11:36:17;;;;;;;4.03;3.57;;;13.50;99.90;;;;;;5048022;28;20866;-73
2021/11/11 11:38:54;;;;;;;5.93;3.90;;;13.50;99.90;;;;;;5047403;28;20309;-73
2021/11/11 11:41:29;;;;;;;3.57;3.27;;;13.60;99.90;;;;;;5063073;28;20272;-73
2021/11/11 11:44:14;;;;;;;3.53;3.23;;;13.60;99.90;;;;;;5046394;28;20283;-74
2021/11/11 11:46:41;;;;;;;7.20;4.27;;;13.60;99.90;;;;;;5046183;28;20209;-73
2021/11/11 11:49:09;;;;;;;6.10;4.20;;;13.70;99.90;;;;;;5046876;28;20203;-74
2021/11/11 11:51:36;;;;;;;4.00;3.60;;;13.70;99.90;;;;;;5056294;28;20233;-73
2021/11/11 11:54:09;;;;;;;5.37;3.30;;;13.70;99.90;;;;;;5046880;28;20701;-73
2021/11/11 11:56:44;;;;;;;4.13;3.60;;;13.70;99.90;;;;;;5045598;28;20724;-74
2021/11/11 11:59:13;;;;;;;6.37;4.47;;;13.70;99.90;;;;;;5060769;28;20260;-73
2021/11/11 12:01:57;;;;;;;5.73;4.30;;;13.60;99.90;;;;;;5045131;28;20702;-73
2021/11/11 12:04:36;;;;;;;4.67;3.37;;;13.60;99.90;;;;;;5047699;28;20630;-73
2021/11/11 12:07:19;;;;;;;4.33;3.60;;;13.60;99.90;;;;;;5048855;28;20272;-73
2021/11/11 12:09:51;;;;;;;4.27;3.47;;;13.60;99.90;;;;;;5054025;28;20327;-74
2021/11/11 12:12:51;;;;;;;5.23;4.00;;;13.60;99.90;;;;;;5045846;28;20598;-73
2021/11/11 12:15:28;;;;;;;3.83;3.43;;;13.60;99.90;;;;;;5044429;28;20203;-74
2021/11/11 12:38:46;;;;;;;5.87;3.63;;;13.50;99.90;;;;;;5003686;28;20215;-74
2021/11/11 12:41:15;;;;;;;3.53;3.20;;;13.50;99.90;;;;;;4977753;28;20219;-74
2021/11/11 12:43:43;;;;;;;4.00;3.40;;;13.50;99.90;;;;;;4977981;28;20305;-73
2021/11/11 12:46:40;;;;;;;4.83;3.40;;;13.50;99.90;;;;;;4986397;28;20208;-74
2021/11/11 12:49:24;;;;;;;3.50;3.20;;;13.50;99.90;;;;;;4999801;28;20290;-74
2021/11/11 12:52:23;;;;;;;4.20;3.80;;;13.50;99.90;;;;;;4980841;28;20218;-73
2021/11/11 12:55:13;;;;;;;4.73;4.03;;;13.50;99.90;;;;;;4927781;29;20237;-74
2021/11/11 12:57:57;;;;;;;5.83;4.20;;;13.50;99.90;;;;;;4928060;29;20302;-74
2021/11/11 13:00:33;;;;;;;5.13;3.93;;;13.50;99.90;;;;;;4926954;29;20208;-73
2021/11/11 13:03:02;;;;;;;3.87;3.47;;;13.50;99.90;;;;;;4912370;29;20266;-73
2021/11/11 13:05:49;;;;;;;4.33;3.70;;;13.50;99.90;;;;;;4899205;29;20214;-73
2021/11/11 13:08:18;;;;;;;4.63;3.90;;;13.50;99.90;;;;;;4912703;29;20305;-74
2021/11/11 13:11:00;;;;;;;3.90;3.40;;;13.50;99.90;;;;;;4927819;29;20258;-73
2021/11/11 13:13:27;;;;;;;4.63;3.60;;;13.50;99.90;;;;;;4960333;28;20220;-74
2021/11/11 13:16:01;;;;;;;3.77;3.37;;;13.50;99.90;;;;;;4982199;28;20206;-74
2021/11/11 13:18:48;;;;;;;3.80;3.40;;;13.50;99.90;;;;;;4984552;28;20224;-73
2021/11/11 13:21:21;;;;;;;5.80;4.00;;;13.50;99.90;;;;;;4970197;28;20228;-73
2021/11/11 13:24:15;;;;;;;8.57;5.37;;;13.50;99.90;;;;;;4979714;28;20204;-74
2021/11/11 14:03:33;;;;;;;4.33;3.67;;;13.20;99.90;;;;;;4940191;28;20255;-74
2021/11/11 16:01:52;;;;;;;13.47;8.47;;;11.70;99.90;;;;;;4945684;29;20299;-75
2021/11/11 16:20:55;;;;;;;17.07;10.17;;;11.50;99.90;;;;;;4947155;28;20229;-74
2021/11/11 16:23:43;;;;;;;15.43;10.33;;;11.50;99.90;;;;;;4938821;29;20300;-74
2021/11/11 16:26:18;;;;;;;16.30;10.17;;;11.50;99.90;;;;;;5022321;28;20629;-73
2021/11/11 16:28:49;;;;;;;20.33;11.80;;;11.50;99.90;;;;;;5046497;28;20739;-73
2021/11/11 16:31:17;;;;;;;16.80;9.10;;;11.50;99.90;;;;;;5049289;28;20204;-74
2021/11/11 16:33:45;;;;;;;15.03;8.77;;;11.50;99.90;;;;;;5046360;28;20626;-73
2021/11/11 16:36:12;;;;;;;12.40;8.33;;;11.50;99.90;;;;;;5047175;28;20215;-74